Time;durP1;ratioP1;P1;durP2;ratioP2;P2;SDS_P1;SDS_P2;PMS_P1;PMS_P2;Temp;Humidity;BMP_temperature;BMP_pressure;BME280_temperature;BME280_humidity;BME280_pressure;Samples;Min_cycle;Max_cycle;Signal;HPM_P1;HPM_P2
2023/03/10 00:00:07;;;;;;;31.90;13.88;;;;;;;1.05;100.00;98818.22;4862574;29;20562;-87
2023/03/10 00:02:34;;;;;;;35.20;13.77;;;;;;;1.07;100.00;98819.47;4870766;29;20048;-86
2023/03/10 00:05:01;;;;;;;25.35;12.27;;;;;;;1.11;100.00;98816.78;4872773;29;20036;-86
2023/03/10 00:07:26;;;;;;;27.50;11.18;;;;;;;1.19;100.00;98837.78;4879807;29;20055;-87
2023/03/10 00:09:52;;;;;;;23.48;10.98;;;;;;;1.18;100.00;98827.91;4890488;29;20485;-87
2023/03/10 00:12:17;;;;;;;26.92;11.77;;;;;;;1.16;100.00;98824.72;4879974;29;20507;-87
2023/03/10 00:14:43;;;;;;;25.15;10.98;;;;;;;0.99;100.00;98813.03;4894590;29;20350;-86
2023/03/10 00:17:08;;;;;;;27.60;13.13;;;;;;;1.23;100.00;98829.59;4879032;29;20032;-87
2023/03/10 00:19:34;;;;;;;30.95;12.70;;;;;;;1.13;100.00;98822.72;4882010;29;20478;-87
2023/03/10 00:22:01;;;;;;;28.42;12.27;;;;;;;1.13;100.00;98811.69;4892694;29;20029;-86
2023/03/10 00:24:26;;;;;;;27.48;11.70;;;;;;;1.14;100.00;98807.75;4877214;29;20067;-86
2023/03/10 00:26:52;;;;;;;27.30;14.10;;;;;;;1.12;100.00;98804.59;4879875;29;20059;-87
2023/03/10 00:29:17;;;;;;;28.58;12.52;;;;;;;1.32;100.00;98808.91;4889240;29;20051;-87
2023/03/10 00:31:43;;;;;;;25.70;12.27;;;;;;;1.32;100.00;98803.38;4894754;29;20028;-86
2023/03/10 00:34:10;;;;;;;25.58;11.73;;;;;;;1.26;100.00;98799.34;4895395;29;20036;-86
2023/03/10 00:36:36;;;;;;;25.90;12.43;;;;;;;1.26;100.00;98793.81;4893577;29;20024;-86
2023/03/10 00:39:03;;;;;;;25.98;13.73;;;;;;;1.20;100.00;98796.09;4875000;29;20071;-86
2023/03/10 00:41:31;;;;;;;31.65;13.63;;;;;;;1.09;100.00;98794.31;4881895;29;20055;-88
2023/03/10 00:43:57;;;;;;;28.38;13.07;;;;;;;1.22;100.00;98803.97;4890372;29;20024;-87
2023/03/10 00:46:24;;;;;;;29.35;13.73;;;;;;;1.18;100.00;98797.59;4874972;29;20024;-87
2023/03/10 00:48:50;;;;;;;32.17;14.55;;;;;;;1.31;100.00;98799.06;4870904;29;20092;-87
2023/03/10 00:51:16;;;;;;;26.55;11.85;;;;;;;1.31;100.00;98792.75;4893375;29;20025;-87
2023/03/10 00:53:42;;;;;;;33.28;15.50;;;;;;;1.25;100.00;98792.25;4877666;29;20126;-87
2023/03/10 00:56:18;;;;;;;29.02;13.48;;;;;;;1.35;100.00;98797.16;4894830;29;20060;-87
2023/03/10 00:58:45;;;;;;;32.50;15.75;;;;;;;1.38;100.00;98793.66;4890521;29;20367;-87
2023/03/10 01:01:19;;;;;;;31.83;15.15;;;;;;;1.28;100.00;98779.69;4877226;29;20374;-88
2023/03/10 01:03:45;;;;;;;33.95;14.45;;;;;;;1.43;100.00;98776.00;4890628;29;20139;-87
2023/03/10 01:06:11;;;;;;;34.20;14.95;;;;;;;1.53;100.00;98780.13;4875410;29;20100;-87
2023/03/10 01:08:37;;;;;;;32.58;15.48;;;;;;;1.40;100.00;98772.03;4893255;29;20462;-87
2023/03/10 01:11:03;;;;;;;37.88;15.85;;;;;;;1.36;100.00;98765.66;4887292;29;20087;-87
2023/03/10 01:13:28;;;;;;;36.35;17.13;;;;;;;1.48;100.00;98772.16;4879786;29;20108;-87
2023/03/10 01:15:53;;;;;;;30.10;14.02;;;;;;;1.37;100.00;98761.75;4872638;29;20044;-87
2023/03/10 01:18:20;;;;;;;30.23;13.45;;;;;;;1.34;100.00;98762.47;4874673;29;20502;-87
2023/03/10 01:20:46;;;;;;;34.97;14.70;;;;;;;1.37;100.00;98761.75;4891757;29;20063;-88
2023/03/10 01:23:17;;;;;;;30.73;13.02;;;;;;;1.44;100.00;98765.78;4878987;29;20483;-87
2023/03/10 01:25:43;;;;;;;34.00;13.75;;;;;;;1.44;100.00;98761.06;4877458;29;20060;-87
2023/03/10 01:28:10;;;;;;;34.03;14.93;;;;;;;1.42;100.00;98758.66;4902147;29;20087;-87
2023/03/10 01:30:36;;;;;;;35.00;14.05;;;;;;;1.48;100.00;98761.13;4874029;29;20176;-87
2023/03/10 01:33:01;;;;;;;34.30;15.02;;;;;;;1.51;100.00;98757.63;4892302;29;20971;-87
2023/03/10 01:35:28;;;;;;;30.90;14.75;;;;;;;1.47;100.00;98765.03;4878302;29;20510;-88
2023/03/10 01:37:53;;;;;;;29.33;14.18;;;;;;;1.62;100.00;98769.63;4876809;29;20078;-87
2023/03/10 01:40:19;;;;;;;29.15;13.30;;;;;;;1.37;100.00;98750.72;4891956;29;20112;-87
2023/03/10 01:42:45;;;;;;;30.42;13.38;;;;;;;1.39;100.00;98747.56;4889625;29;20040;-87
2023/03/10 01:45:13;;;;;;;32.50;13.32;;;;;;;1.53;100.00;98747.81;4876809;29;20033;-87
2023/03/10 01:47:40;;;;;;;24.33;12.00;;;;;;;1.49;100.00;98735.16;4889882;29;20032;-88
2023/03/10 01:50:09;;;;;;;23.40;12.88;;;;;;;1.43;100.00;98723.63;4877272;29;20048;-87
2023/03/10 01:52:35;;;;;;;30.10;12.68;;;;;;;1.33;100.00;98733.31;4890122;29;20025;-88
2023/03/10 01:55:15;;;;;;;29.05;14.23;;;;;;;1.40;100.00;98743.66;4887863;29;20044;-87
2023/03/10 01:57:48;;;;;;;26.95;12.05;;;;;;;1.21;100.00;98731.53;4894858;29;20037;-88
2023/03/10 02:00:15;;;;;;;25.33;10.88;;;;;;;1.56;100.00;98744.34;4875641;29;20131;-87
2023/03/10 02:02:59;;;;;;;27.48;11.88;;;;;;;1.70;100.00;98745.72;4886197;29;20053;-87
2023/03/10 02:05:28;;;;;;;26.23;11.85;;;;;;;1.60;100.00;98752.66;4880664;29;20456;-87
2023/03/10 02:07:54;;;;;;;25.30;11.07;;;;;;;1.59;100.00;98749.09;4876472;29;20129;-88
2023/03/10 02:10:20;;;;;;;25.45;10.77;;;;;;;1.47;100.00;98737.47;4876694;29;20450;-87
2023/03/10 02:12:45;;;;;;;21.92;10.52;;;;;;;1.54;100.00;98748.59;4876330;29;20060;-88
2023/03/10 02:15:11;;;;;;;21.85;10.30;;;;;;;1.57;100.00;98732.13;4869160;29;20040;-88
2023/03/10 02:17:38;;;;;;;21.83;10.02;;;;;;;1.51;100.00;98732.81;4869654;29;20375;-87
2023/03/10 02:20:19;;;;;;;20.25;10.60;;;;;;;1.50;100.00;98737.53;4893692;29;20044;-87
2023/03/10 02:22:46;;;;;;;22.90;9.98;;;;;;;1.63;100.00;98735.38;4873170;29;20137;-87
2023/03/10 02:25:45;;;;;;;22.10;10.90;;;;;;;1.58;100.00;98738.44;4876019;29;20036;-87
2023/03/10 02:28:10;;;;;;;21.35;10.90;;;;;;;1.46;100.00;98733.13;4873964;29;20032;-87
2023/03/10 02:30:49;;;;;;;22.13;10.35;;;;;;;1.68;100.00;98737.00;4887530;29;20087;-87
2023/03/10 02:33:18;;;;;;;20.50;9.07;;;;;;;1.56;100.00;98735.25;4883423;29;20036;-87
2023/03/10 02:35:44;;;;;;;20.23;9.68;;;;;;;1.53;100.00;98719.44;4877262;29;20612;-87
2023/03/10 02:38:10;;;;;;;19.25;9.43;;;;;;;1.58;100.00;98732.91;4884443;29;20040;-87
2023/03/10 02:40:49;;;;;;;20.50;8.88;;;;;;;1.80;100.00;98740.34;4874990;29;20036;-87
2023/03/10 02:43:30;;;;;;;21.35;9.52;;;;;;;1.54;100.00;98726.53;4886670;29;20039;-87
2023/03/10 02:46:00;;;;;;;19.42;9.07;;;;;;;1.71;100.00;98725.22;4885897;29;20032;-87
2023/03/10 02:48:28;;;;;;;20.48;8.52;;;;;;;1.57;100.00;98725.81;4883376;29;20039;-87
2023/03/10 02:50:55;;;;;;;19.55;9.07;;;;;;;1.69;100.00;98733.91;4885452;29;20552;-87
2023/03/10 02:53:24;;;;;;;20.02;8.60;;;;;;;1.76;100.00;98735.97;4869334;29;20040;-88
2023/03/10 02:55:50;;;;;;;19.48;9.20;;;;;;;1.69;100.00;98717.34;4883846;29;20516;-87
2023/03/10 02:58:16;;;;;;;22.33;9.75;;;;;;;1.70;100.00;98724.44;4885730;29;20121;-87
2023/03/10 03:00:45;;;;;;;19.60;9.68;;;;;;;1.59;100.00;98717.97;4867936;29;20043;-87
2023/03/10 03:03:11;;;;;;;20.10;9.43;;;;;;;1.45;100.00;98734.28;4870585;29;20044;-87
2023/03/10 03:05:38;;;;;;;18.60;9.40;;;;;;;1.48;100.00;98719.78;4889910;29;20051;-88
2023/03/10 03:08:04;;;;;;;18.63;9.98;;;;;;;1.54;100.00;98710.81;4887932;29;20044;-87
2023/03/10 03:10:30;;;;;;;16.25;8.05;;;;;;;1.53;100.00;98713.94;4872810;29;20033;-88
2023/03/10 03:12:56;;;;;;;20.02;9.80;;;;;;;1.46;100.00;98720.16;4887431;29;20404;-86
2023/03/10 03:15:22;;;;;;;18.75;8.98;;;;;;;1.58;100.00;98714.44;4870510;29;20056;-87
2023/03/10 03:17:48;;;;;;;15.38;8.27;;;;;;;1.59;100.00;98712.47;4874002;29;20025;-87
2023/03/10 03:20:15;;;;;;;19.73;9.27;;;;;;;1.51;100.00;98702.47;4876578;29;20036;-87
2023/03/10 03:22:42;;;;;;;18.63;8.60;;;;;;;1.53;100.00;98724.97;4882938;29;20103;-87
2023/03/10 03:25:08;;;;;;;15.23;8.23;;;;;;;1.55;100.00;98733.66;4873095;29;20053;-87
2023/03/10 03:27:35;;;;;;;19.25;9.27;;;;;;;1.33;100.00;98718.72;4873227;29;20048;-87
2023/03/10 03:30:00;;;;;;;18.13;9.90;;;;;;;1.45;100.00;98723.25;4872510;29;20031;-87
2023/03/10 03:32:26;;;;;;;18.02;8.63;;;;;;;1.34;100.00;98712.06;4892204;29;20143;-86
2023/03/10 03:34:51;;;;;;;19.33;9.02;;;;;;;1.45;100.00;98713.03;4873396;29;20378;-87
2023/03/10 03:37:17;;;;;;;15.23;7.57;;;;;;;1.36;100.00;98709.75;4872157;29;20092;-87
2023/03/10 03:39:42;;;;;;;20.45;9.23;;;;;;;1.31;100.00;98713.59;4880622;29;20127;-87
2023/03/10 03:42:08;;;;;;;17.83;8.35;;;;;;;1.34;100.00;98712.06;4890583;29;20103;-86
2023/03/10 03:44:33;;;;;;;16.73;8.75;;;;;;;1.32;100.00;98715.19;4884882;29;20118;-86
2023/03/10 03:46:59;;;;;;;19.77;10.13;;;;;;;1.23;100.00;98709.13;4874973;29;20359;-86
2023/03/10 03:49:24;;;;;;;18.80;8.75;;;;;;;1.20;100.00;98707.91;4886134;29;20417;-87
2023/03/10 03:51:49;;;;;;;17.50;9.00;;;;;;;1.37;100.00;98720.41;4874632;29;20401;-87
2023/03/10 03:54:15;;;;;;;16.65;9.18;;;;;;;1.45;100.00;98710.25;4871245;29;20032;-87
2023/03/10 03:56:40;;;;;;;16.48;7.47;;;;;;;1.17;100.00;98696.81;4892624;29;21671;-87
2023/03/10 03:59:06;;;;;;;19.92;9.60;;;;;;;1.52;100.00;98713.16;4869382;29;20037;-87
2023/03/10 04:01:31;;;;;;;19.30;8.25;;;;;;;1.40;100.00;98705.88;4888207;29;20032;-86
2023/03/10 04:03:57;;;;;;;19.40;8.70;;;;;;;1.42;100.00;98714.56;4887714;29;20047;-86
2023/03/10 04:06:22;;;;;;;20.17;8.43;;;;;;;1.33;100.00;98710.47;4889899;29;20044;-87
2023/03/10 04:08:49;;;;;;;20.77;8.38;;;;;;;1.38;100.00;98713.72;4869435;29;20044;-87
2023/03/10 04:11:15;;;;;;;14.70;7.43;;;;;;;1.42;100.00;98700.78;4890584;29;20520;-86
2023/03/10 04:13:40;;;;;;;19.98;9.30;;;;;;;1.41;100.00;98704.72;4872079;29;20024;-86
2023/03/10 04:16:06;;;;;;;18.13;8.45;;;;;;;1.22;100.00;98704.78;4888446;29;20115;-86
2023/03/10 04:18:32;;;;;;;17.23;8.38;;;;;;;1.28;100.00;98708.81;4885592;29;20155;-86
2023/03/10 04:20:57;;;;;;;17.88;8.70;;;;;;;1.33;100.00;98725.06;4873337;29;20397;-86
2023/03/10 04:23:23;;;;;;;15.23;8.13;;;;;;;1.31;100.00;98713.59;4887206;29;20025;-87
2023/03/10 04:25:48;;;;;;;16.40;8.02;;;;;;;1.33;100.00;98716.78;4872107;29;20047;-87
2023/03/10 04:28:14;;;;;;;16.20;7.95;;;;;;;1.40;100.00;98727.91;4855091;29;20091;-87
2023/03/10 04:30:44;;;;;;;13.68;7.20;;;;;;;1.21;100.00;98715.00;4870790;29;20548;-87
2023/03/10 04:33:10;;;;;;;17.73;9.38;;;;;;;1.30;100.00;98722.22;4884667;29;20072;-86
2023/03/10 04:35:41;;;;;;;15.52;7.55;;;;;;;1.24;100.00;98724.50;4872821;29;20034;-86
2023/03/10 04:38:06;;;;;;;15.32;6.55;;;;;;;1.21;100.00;98716.97;4872329;29;20490;-87
2023/03/10 04:40:32;;;;;;;15.85;7.82;;;;;;;1.27;100.00;98718.25;4868353;29;20067;-86
2023/03/10 04:42:57;;;;;;;16.42;8.05;;;;;;;1.12;100.00;98700.69;4869706;29;20025;-86
2023/03/10 04:45:23;;;;;;;13.77;6.72;;;;;;;1.17;100.00;98713.38;4885298;29;20048;-86
2023/03/10 04:47:48;;;;;;;17.77;8.18;;;;;;;1.11;100.00;98709.31;4869380;29;20028;-87
2023/03/10 04:50:16;;;;;;;15.98;7.90;;;;;;;1.36;100.00;98702.25;4886301;29;20414;-87
2023/03/10 04:52:43;;;;;;;13.18;6.55;;;;;;;1.21;100.00;98705.94;4869537;29;22611;-87
2023/03/10 04:55:09;;;;;;;17.42;7.95;;;;;;;1.16;100.00;98711.75;4871931;29;20114;-86
2023/03/10 04:57:34;;;;;;;15.07;8.13;;;;;;;1.13;100.00;98707.00;4869436;29;20777;-86
2023/03/10 04:59:59;;;;;;;22.33;9.98;;;;;;;1.18;100.00;98704.72;4872126;29;20032;-87
2023/03/10 05:02:25;;;;;;;15.48;7.47;;;;;;;1.26;100.00;98708.38;4888675;29;20052;-87
2023/03/10 05:04:50;;;;;;;15.15;7.78;;;;;;;1.25;100.00;98711.53;4869973;29;20036;-86
2023/03/10 05:07:16;;;;;;;16.65;7.85;;;;;;;1.13;100.00;98707.00;4868419;29;20036;-86
2023/03/10 05:09:41;;;;;;;21.00;9.57;;;;;;;1.06;100.00;98690.34;4885813;29;20028;-86
2023/03/10 05:12:07;;;;;;;15.20;8.45;;;;;;;1.08;100.00;98688.81;4873500;29;20087;-86
2023/03/10 05:14:33;;;;;;;18.25;8.50;;;;;;;0.83;100.00;98684.84;4861851;29;20040;-87
2023/03/10 05:16:58;;;;;;;16.83;9.52;;;;;;;1.04;100.00;98692.69;4866569;29;20230;-87
2023/03/10 05:19:23;;;;;;;16.10;7.95;;;;;;;1.13;100.00;98710.53;4871729;29;20052;-87
2023/03/10 05:21:49;;;;;;;17.77;8.43;;;;;;;1.18;100.00;98703.91;4884715;29;20029;-87
2023/03/10 05:24:14;;;;;;;17.85;8.95;;;;;;;1.10;100.00;98711.28;4873691;29;20473;-87
2023/03/10 05:26:40;;;;;;;21.98;9.25;;;;;;;1.16;100.00;98711.75;4882875;29;20036;-87
2023/03/10 05:29:06;;;;;;;22.38;9.88;;;;;;;1.15;100.00;98710.19;4887097;29;20517;-87
2023/03/10 05:31:31;;;;;;;27.83;9.70;;;;;;;1.14;100.00;98730.63;4870428;29;20032;-87
2023/03/10 05:33:57;;;;;;;20.92;9.77;;;;;;;1.14;100.00;98722.34;4887238;29;20112;-87
2023/03/10 05:36:23;;;;;;;19.77;9.00;;;;;;;1.22;100.00;98715.78;4872757;29;20088;-87
2023/03/10 05:38:48;;;;;;;19.70;9.48;;;;;;;1.27;100.00;98700.94;4870692;29;20033;-87
2023/03/10 05:41:14;;;;;;;23.60;10.32;;;;;;;1.07;100.00;98700.97;4872684;29;20056;-87
2023/03/10 05:43:40;;;;;;;21.40;10.27;;;;;;;1.09;100.00;98695.91;4873137;29;20070;-87
2023/03/10 05:46:07;;;;;;;21.23;10.27;;;;;;;1.32;100.00;98700.63;4869916;29;20064;-87
2023/03/10 05:48:33;;;;;;;25.00;10.52;;;;;;;1.22;100.00;98693.75;4885735;29;20419;-87
2023/03/10 05:51:04;;;;;;;23.40;11.30;;;;;;;1.02;100.00;98690.28;4885763;29;20071;-87
2023/03/10 05:53:30;;;;;;;22.63;10.43;;;;;;;1.17;100.00;98691.31;4882467;29;20382;-87
2023/03/10 05:55:57;;;;;;;19.27;9.07;;;;;;;1.15;100.00;98693.66;4888664;29;20032;-87
2023/03/10 05:58:23;;;;;;;21.33;10.63;;;;;;;1.20;100.00;98707.09;4888224;29;20490;-87
2023/03/10 06:00:49;;;;;;;26.02;12.60;;;;;;;1.29;100.00;98698.59;4870943;29;20088;-86
2023/03/10 06:03:16;;;;;;;22.25;11.00;;;;;;;1.28;100.00;98700.53;4869018;29;20116;-86
2023/03/10 06:05:41;;;;;;;24.02;10.27;;;;;;;1.38;100.00;98697.16;4871658;29;20040;-86
2023/03/10 06:08:08;;;;;;;22.95;11.27;;;;;;;1.12;100.00;98702.66;4873454;29;20039;-86
2023/03/10 06:10:34;;;;;;;21.42;10.38;;;;;;;1.18;100.00;98709.44;4887883;29;20087;-86
2023/03/10 06:12:59;;;;;;;24.40;10.43;;;;;;;1.08;100.00;98710.06;4884919;29;20045;-86
2023/03/10 06:15:25;;;;;;;23.27;10.95;;;;;;;1.05;100.00;98689.53;4887153;29;20028;-86
2023/03/10 06:17:50;;;;;;;23.58;11.90;;;;;;;1.14;100.00;98697.53;4868581;29;20033;-86
2023/03/10 06:20:16;;;;;;;19.05;9.85;;;;;;;1.24;100.00;98707.16;4875068;29;20038;-86
2023/03/10 06:22:41;;;;;;;24.48;10.82;;;;;;;1.24;100.00;98713.47;4873673;29;20344;-87
2023/03/10 06:25:07;;;;;;;24.75;10.75;;;;;;;1.25;100.00;98706.81;4888122;29;20493;-87
2023/03/10 06:27:32;;;;;;;21.10;9.85;;;;;;;1.17;100.00;98702.34;4868314;29;20078;-86
2023/03/10 06:29:59;;;;;;;19.95;10.52;;;;;;;1.29;100.00;98699.41;4870424;29;20021;-87
2023/03/10 06:32:24;;;;;;;22.42;10.35;;;;;;;1.18;100.00;98720.44;4886940;29;20036;-87
2023/03/10 06:34:50;;;;;;;20.02;9.50;;;;;;;1.31;100.00;98719.13;4884481;29;20429;-86
2023/03/10 06:37:15;;;;;;;23.23;9.75;;;;;;;1.47;100.00;98715.41;4871312;29;20032;-86
2023/03/10 06:39:41;;;;;;;23.80;11.15;;;;;;;1.24;100.00;98696.94;4876731;29;20037;-86
2023/03/10 06:42:07;;;;;;;21.35;9.30;;;;;;;1.43;100.00;98701.56;4896188;29;20404;-85
2023/03/10 06:44:33;;;;;;;19.45;8.63;;;;;;;1.34;100.00;98706.56;4876346;29;20032;-86
2023/03/10 06:46:59;;;;;;;20.95;9.00;;;;;;;1.33;100.00;98715.97;4877706;29;20028;-86
2023/03/10 06:49:32;;;;;;;17.42;9.15;;;;;;;1.20;100.00;98701.59;4876024;29;20063;-86
2023/03/10 06:51:58;;;;;;;18.33;9.48;;;;;;;1.20;100.00;98696.06;4887800;29;20028;-86
2023/03/10 06:54:24;;;;;;;20.58;9.70;;;;;;;1.27;100.00;98707.25;4875567;29;20119;-86
2023/03/10 06:56:49;;;;;;;18.38;9.80;;;;;;;1.11;100.00;98699.09;4880402;29;20083;-86
2023/03/10 06:59:15;;;;;;;15.25;8.70;;;;;;;1.21;100.00;98703.97;4874997;29;20040;-86
2023/03/10 07:01:41;;;;;;;20.27;8.27;;;;;;;1.22;100.00;98718.56;4888268;29;20111;-86
2023/03/10 07:04:06;;;;;;;20.27;9.85;;;;;;;1.40;100.00;98724.38;4871089;29;20037;-88
2023/03/10 07:06:35;;;;;;;22.08;8.73;;;;;;;1.36;100.00;98731.78;4857686;29;20033;-87
2023/03/10 07:09:00;;;;;;;22.20;9.07;;;;;;;2.00;100.00;98732.78;4855205;29;20060;-84
2023/03/10 07:11:26;;;;;;;16.30;8.52;;;;;;;2.77;100.00;98747.13;4853202;29;20120;-86
2023/03/10 07:13:52;;;;;;;17.27;7.90;;;;;;;1.92;100.00;98749.56;4859967;29;20461;-86
2023/03/10 07:16:18;;;;;;;16.52;8.15;;;;;;;1.82;100.00;98742.75;4875585;29;20040;-86
2023/03/10 07:18:44;;;;;;;16.02;7.90;;;;;;;1.65;100.00;98733.03;4878192;29;20084;-87
2023/03/10 07:21:11;;;;;;;18.55;8.88;;;;;;;1.68;100.00;98731.50;4858391;29;20115;-87
2023/03/10 07:23:37;;;;;;;17.65;7.95;;;;;;;1.52;100.00;98728.88;4860721;29;20032;-87
2023/03/10 07:26:06;;;;;;;17.13;8.13;;;;;;;1.35;100.00;98722.72;4874322;29;20033;-86
2023/03/10 07:28:32;;;;;;;17.88;9.18;;;;;;;1.50;100.00;98739.50;4860645;29;20040;-86
2023/03/10 07:31:05;;;;;;;17.02;8.73;;;;;;;1.60;100.00;98736.09;4858830;29;20525;-86
2023/03/10 07:33:31;;;;;;;16.83;9.30;;;;;;;1.65;100.00;98738.56;4875527;29;20029;-86
2023/03/10 07:35:57;;;;;;;15.90;7.95;;;;;;;1.50;100.00;98743.06;4876381;29;20402;-87
2023/03/10 07:38:22;;;;;;;17.77;8.90;;;;;;;1.26;100.00;98732.41;4858156;29;20052;-87
2023/03/10 07:40:48;;;;;;;23.50;11.20;;;;;;;1.54;100.00;98737.56;4859051;29;20061;-87
2023/03/10 07:43:13;;;;;;;20.25;9.48;;;;;;;1.26;100.00;98738.69;4875982;29;20025;-87
2023/03/10 07:45:39;;;;;;;17.25;8.95;;;;;;;1.47;100.00;98743.78;4873088;29;20028;-87
2023/03/10 07:48:04;;;;;;;17.23;8.85;;;;;;;1.36;100.00;98738.09;4859306;29;20074;-87
2023/03/10 07:50:30;;;;;;;18.75;9.05;;;;;;;1.39;100.00;98736.56;4858790;29;20388;-87
2023/03/10 07:52:55;;;;;;;18.17;8.63;;;;;;;1.51;100.00;98746.59;4858012;29;20084;-87
2023/03/10 07:55:21;;;;;;;20.77;9.75;;;;;;;1.45;100.00;98750.81;4858117;29;20033;-87
2023/03/10 07:57:47;;;;;;;19.73;9.65;;;;;;;1.66;100.00;98756.69;4877666;29;20025;-87
2023/03/10 08:00:13;;;;;;;18.98;9.27;;;;;;;1.66;100.00;98751.16;4873478;29;20065;-85
2023/03/10 08:02:40;;;;;;;16.52;9.43;;;;;;;1.62;100.00;98761.34;4859380;29;20049;-86
2023/03/10 08:05:06;;;;;;;24.08;10.20;;;;;;;1.58;100.00;98769.56;4859683;29;20092;-88
2023/03/10 08:07:31;;;;;;;20.10;9.75;;;;;;;1.58;100.00;98764.06;4858298;29;20117;-88
2023/03/10 08:09:57;;;;;;;25.92;10.05;;;;;;;1.49;100.00;98762.72;4875910;29;20033;-88
2023/03/10 08:12:22;;;;;;;19.45;9.20;;;;;;;1.56;100.00;98760.06;4878133;29;20029;-89
2023/03/10 08:14:49;;;;;;;19.45;9.80;;;;;;;1.53;100.00;98772.63;4875525;29;20029;-89
2023/03/10 08:17:15;;;;;;;17.85;9.18;;;;;;;1.66;100.00;98778.75;4860602;29;20037;-87
2023/03/10 08:19:41;;;;;;;19.80;9.77;;;;;;;1.61;100.00;98776.31;4876742;29;20037;-86
2023/03/10 08:22:07;;;;;;;23.58;10.05;;;;;;;1.65;100.00;98785.44;4858981;29;20037;-87
2023/03/10 08:24:32;;;;;;;18.02;9.23;;;;;;;1.57;100.00;98773.50;4862215;29;20266;-87
2023/03/10 08:26:57;;;;;;;19.30;9.38;;;;;;;1.56;100.00;98762.81;4859846;29;20090;-87
2023/03/10 08:29:23;;;;;;;18.98;9.70;;;;;;;1.56;100.00;98760.06;4875253;29;20037;-86
2023/03/10 08:31:49;;;;;;;19.63;9.45;;;;;;;1.80;100.00;98769.91;4856554;29;20341;-86
2023/03/10 08:34:15;;;;;;;23.08;11.00;;;;;;;1.67;100.00;98769.31;4872069;29;20044;-86
2023/03/10 08:36:42;;;;;;;21.52;9.48;;;;;;;1.76;100.00;98771.81;4858432;29;20029;-86
2023/03/10 08:39:09;;;;;;;19.73;9.65;;;;;;;1.80;100.00;98776.22;4860767;29;20029;-86
2023/03/10 08:41:44;;;;;;;21.27;10.32;;;;;;;1.71;100.00;98770.19;4878001;29;20047;-86
2023/03/10 08:44:14;;;;;;;21.52;9.95;;;;;;;1.76;100.00;98772.59;4878763;29;20052;-86
2023/03/10 08:46:40;;;;;;;19.77;10.18;;;;;;;1.76;100.00;98769.84;4877843;29;20478;-86
2023/03/10 08:49:15;;;;;;;19.88;10.25;;;;;;;1.78;100.00;98769.50;4873057;29;20040;-86
2023/03/10 08:51:43;;;;;;;20.20;9.90;;;;;;;1.99;100.00;98788.34;4872115;29;20045;-86
2023/03/10 08:54:15;;;;;;;23.08;10.10;;;;;;;1.81;100.00;98764.03;4862351;29;20030;-86
2023/03/10 08:56:42;;;;;;;23.35;10.05;;;;;;;1.92;100.00;98764.19;4874562;29;20100;-86
2023/03/10 08:59:08;;;;;;;23.42;10.23;;;;;;;1.85;100.00;98769.59;4873156;29;20021;-86
2023/03/10 09:01:35;;;;;;;20.67;10.52;;;;;;;1.80;100.00;98770.69;4859134;29;20045;-86
2023/03/10 09:04:04;;;;;;;24.42;11.73;;;;;;;1.69;100.00;98760.69;4860939;29;20394;-85
2023/03/10 09:06:29;;;;;;;18.77;9.65;;;;;;;1.67;100.00;98774.84;4857615;29;20029;-86
2023/03/10 09:08:56;;;;;;;22.33;10.82;;;;;;;1.88;100.00;98768.03;4876946;29;20088;-87
2023/03/10 09:11:31;;;;;;;22.83;10.90;;;;;;;1.83;100.00;98761.69;4856174;29;20033;-87
2023/03/10 09:13:57;;;;;;;21.92;10.65;;;;;;;1.94;100.00;98772.06;4875460;29;20029;-86
2023/03/10 09:16:23;;;;;;;24.75;10.40;;;;;;;1.73;100.00;98778.88;4857465;29;20147;-86
2023/03/10 09:18:48;;;;;;;22.35;11.23;;;;;;;1.90;100.00;98782.25;4858439;29;20085;-87
2023/03/10 09:21:18;;;;;;;23.33;11.23;;;;;;;1.84;100.00;98781.81;4858085;29;20041;-87
2023/03/10 09:23:47;;;;;;;22.77;11.68;;;;;;;1.91;100.00;98773.63;4877364;29;20057;-86
2023/03/10 09:26:15;;;;;;;25.60;11.02;;;;;;;1.76;100.00;98772.59;4878195;29;20088;-87
2023/03/10 09:28:56;;;;;;;22.45;10.75;;;;;;;1.74;100.00;98774.94;4874900;29;20033;-87
2023/03/10 09:31:25;;;;;;;22.13;11.65;;;;;;;1.86;100.00;98764.88;4854354;29;20048;-87
2023/03/10 09:33:54;;;;;;;20.58;10.63;;;;;;;1.77;100.00;98776.97;4861611;29;20517;-87
2023/03/10 09:36:33;;;;;;;22.17;11.32;;;;;;;1.67;100.00;98769.31;4876747;29;20033;-87
2023/03/10 09:38:59;;;;;;;23.77;11.55;;;;;;;1.71;100.00;98767.41;4876554;29;20037;-86
2023/03/10 09:42:08;;;;;;;26.05;12.15;;;;;;;1.82;100.00;98793.19;4859218;29;20048;-87
2023/03/10 09:45:07;;;;;;;29.90;12.85;;;;;;;1.90;100.00;98801.56;4857543;29;20032;-85
2023/03/10 09:47:56;;;;;;;25.10;12.50;;;;;;;2.05;100.00;98794.34;4871933;29;20036;-86
2023/03/10 09:50:42;;;;;;;30.60;13.55;;;;;;;1.85;100.00;98797.16;4874999;29;20029;-86
2023/03/10 09:53:37;;;;;;;29.23;13.60;;;;;;;1.84;100.00;98809.38;4871554;29;20029;-87
2023/03/10 09:56:14;;;;;;;27.63;12.07;;;;;;;1.74;100.00;98824.59;4869678;29;20505;-86
2023/03/10 09:58:47;;;;;;;32.47;13.93;;;;;;;1.77;100.00;98828.56;4872642;29;20032;-86
2023/03/10 10:01:20;;;;;;;33.05;13.48;;;;;;;1.88;100.00;98837.00;4856281;29;20051;-87
2023/03/10 10:04:08;;;;;;;29.38;12.95;;;;;;;1.74;100.00;98843.91;4872302;29;20076;-88
2023/03/10 10:06:37;;;;;;;30.55;12.80;;;;;;;1.66;100.00;98833.13;4870856;29;20795;-87
2023/03/10 10:09:16;;;;;;;34.10;14.32;;;;;;;1.81;100.00;98838.50;4870854;29;20037;-87
2023/03/10 10:11:42;;;;;;;28.70;13.18;;;;;;;1.85;100.00;98840.53;4858751;29;20033;-88
2023/03/10 10:14:14;;;;;;;30.10;11.85;;;;;;;1.87;100.00;98849.22;4853192;29;20450;-88
2023/03/10 10:16:51;;;;;;;;;;;;;;;2.08;100.00;98857.84;4855978;29;20097;-92
2023/03/10 10:19:26;;;;;;;32.05;14.13;;;;;;;2.08;100.00;98846.81;4875173;29;19923;-89
2023/03/10 10:22:48;;;;;;;33.55;13.93;;;;;;;2.15;100.00;98849.69;4853509;29;20037;-92
2023/03/10 10:25:20;;;;;;;29.58;14.10;;;;;;;1.79;100.00;98832.56;4802768;29;20035;-93
2023/03/10 10:31:33;;;;;;;32.28;14.00;;;;;;;1.80;100.00;98850.69;4826845;29;20796;-95
2023/03/10 10:34:42;;;;;;;29.83;13.70;;;;;;;2.08;100.00;98857.84;4821997;29;20038;-94
2023/03/10 10:37:28;;;;;;;30.13;13.63;;;;;;;1.92;100.00;98868.22;4810213;29;20027;-91
2023/03/10 10:46:54;;;;;;;30.02;13.48;;;;;;;2.05;100.00;98888.94;4759533;29;20537;-94
2023/03/10 10:49:24;;;;;;;;;;;;;;;2.06;100.00;98893.28;4846131;29;20041;-95
2023/03/10 10:52:01;;;;;;;31.65;14.98;;;;;;;2.06;100.00;98889.75;4877667;29;19924;-93
2023/03/10 10:54:53;;;;;;;35.80;14.85;;;;;;;1.98;100.00;98886.88;4862880;29;20033;-89
2023/03/10 11:01:16;;;;;;;32.05;13.88;;;;;;;1.95;100.00;98886.81;4845809;29;20344;-92
2023/03/10 11:04:02;;;;;;;29.40;12.85;;;;;;;1.94;100.00;98887.97;4891433;29;20045;-89
2023/03/10 11:06:49;;;;;;;30.02;13.40;;;;;;;1.75;100.00;98884.13;4883633;29;20024;-94
2023/03/10 11:10:18;;;;;;;29.85;14.02;;;;;;;1.96;100.00;98885.63;4885671;29;20036;-93
2023/03/10 11:13:25;;;;;;;29.50;12.57;;;;;;;1.84;100.00;98870.06;4894526;29;20056;-95
2023/03/10 11:16:10;;;;;;;27.10;13.30;;;;;;;2.06;100.00;98879.50;4893250;29;20028;-95
2023/03/10 11:18:40;;;;;;;24.40;11.82;;;;;;;2.02;100.00;98873.13;4889084;29;20028;-93
2023/03/10 11:21:22;;;;;;;31.60;12.32;;;;;;;1.87;100.00;98865.78;4895841;29;20146;-95
2023/03/10 11:24:04;;;;;;;30.30;13.52;;;;;;;1.89;100.00;98858.72;4899536;29;20051;-94
2023/03/10 11:26:39;;;;;;;26.92;12.18;;;;;;;2.05;100.00;98853.06;4890750;29;20441;-90
2023/03/10 11:29:32;;;;;;;30.13;13.27;;;;;;;1.95;100.00;98845.41;4882007;29;20024;-92
2023/03/10 11:32:18;;;;;;;;;;;;;;;2.10;100.00;98858.25;4877236;29;20068;-92
2023/03/10 11:34:52;;;;;;;27.38;12.95;;;;;;;2.03;100.00;98853.44;4891094;29;19919;-93
2023/03/10 11:37:30;;;;;;;26.48;11.70;;;;;;;1.94;100.00;98860.38;4877165;29;20032;-95
2023/03/10 11:40:36;;;;;;;24.73;12.13;;;;;;;1.94;100.00;98854.84;4897331;29;20522;-92
2023/03/10 11:43:29;;;;;;;29.90;13.88;;;;;;;1.87;100.00;98844.50;4898359;29;20444;-93
2023/03/10 11:45:59;;;;;;;23.85;11.40;;;;;;;1.97;100.00;98849.41;4883305;29;20060;-94